Kennedale's Hourly Summary for Saturday, March 18, 2017
Hour Temp
(f)
RH
(%)
Solar Rad.
(MJ/m2)
Rainfall
(in)
Wind
(mph)
3/18/2017 12:00 AM 67 76 19.95 0 7.75
3/18/2017 1:00 AM 65 82 19.95 0 8.05
3/18/2017 2:00 AM 64 87 19.95 0 7.83
3/18/2017 3:00 AM 64 89 19.95 0 7.55
3/18/2017 4:00 AM 63 92 19.95 0 5.14
3/18/2017 5:00 AM 62 95 19.95 0 4.42
3/18/2017 6:00 AM 63 95 19.95 0 5.03
3/18/2017 7:00 AM 64 91 19.95 0 5.54
3/18/2017 8:00 AM 65 89 19.95 0 4.75
3/18/2017 9:00 AM 67 84 19.95 0 4.03
3/18/2017 10:00 AM 71 74 19.95 0 5.99
3/18/2017 11:00 AM 74 67 19.95 0 5.65
3/18/2017 12:00 PM 77 62 19.95 0 5.09
3/18/2017 1:00 PM 79 58 19.95 0 4.7
3/18/2017 2:00 PM 80 54 19.95 0 5.87
3/18/2017 3:00 PM 81 53 19.95 0 7.44
3/18/2017 4:00 PM 82 47 19.95 0 8.89
3/18/2017 5:00 PM 81 47 19.95 0 9.06
3/18/2017 6:00 PM 79 52 19.95 0 8.78
3/18/2017 7:00 PM 77 57 19.95 0 8.56
3/18/2017 8:00 PM 73 65 19.95 0 5.31
3/18/2017 9:00 PM 71 70 19.95 0 5.2
3/18/2017 10:00 PM 69 73 19.95 0 5.7
3/18/2017 11:00 PM 67 78 19.95 0 4.97
Data Summary 71 72 478.80 0.00 6.30